Time;durP1;ratioP1;P1;durP2;ratioP2;P2;SDS_P1;SDS_P2;PMS_P1;PMS_P2;Temp;Humidity;BMP_temperature;BMP_pressure;BME280_temperature;BME280_humidity;BME280_pressure;Samples;Min_cycle;Max_cycle;Signal;HPM_P1;HPM_P2
2022/03/28 00:01:36;;;;;;;22.73;11.20;;;7.80;69.50;;;;;;5028489;28;20022;-65
2022/03/28 00:04:02;;;;;;;24.75;11.98;;;7.90;69.30;;;;;;5037123;28;20330;-65
2022/03/28 00:06:28;;;;;;;28.35;11.40;;;7.80;69.50;;;;;;5035452;28;20029;-65
2022/03/28 00:08:53;;;;;;;24.67;11.85;;;7.80;69.60;;;;;;5036222;28;20033;-65
2022/03/28 00:11:19;;;;;;;25.50;11.55;;;7.60;70.30;;;;;;5031436;28;20026;-66
2022/03/28 00:13:46;;;;;;;21.05;11.00;;;7.30;71.10;;;;;;5031735;28;20032;-67
2022/03/28 00:16:14;;;;;;;22.52;11.38;;;7.10;71.50;;;;;;5028714;28;20018;-65
2022/03/28 00:18:40;;;;;;;21.52;11.27;;;7.00;72.20;;;;;;5022748;28;20033;-67
2022/03/28 00:21:09;;;;;;;22.42;10.77;;;6.80;72.50;;;;;;5028818;28;20029;-66
2022/03/28 00:23:34;;;;;;;23.23;11.95;;;6.70;72.80;;;;;;5027799;28;20104;-66
2022/03/28 00:26:00;;;;;;;26.58;12.98;;;6.60;73.40;;;;;;5032750;28;20362;-65
2022/03/28 00:28:26;;;;;;;27.50;11.65;;;6.70;72.90;;;;;;5033533;28;20033;-66
2022/03/28 00:30:52;;;;;;;22.92;11.30;;;6.80;73.00;;;;;;5025441;28;20084;-65
2022/03/28 00:33:18;;;;;;;25.17;12.40;;;7.00;72.20;;;;;;5023938;28;20104;-66
2022/03/28 00:35:43;;;;;;;21.98;12.13;;;7.10;71.70;;;;;;5018943;28;20034;-66
2022/03/28 00:38:11;;;;;;;22.58;12.00;;;7.30;71.30;;;;;;5033882;28;20025;-65
2022/03/28 00:40:37;;;;;;;26.50;11.50;;;7.50;70.50;;;;;;5021068;28;20426;-65
2022/03/28 00:43:06;;;;;;;21.20;10.13;;;7.80;69.90;;;;;;5027524;28;20041;-65
2022/03/28 00:45:33;;;;;;;25.38;12.55;;;7.90;69.60;;;;;;5024252;28;20319;-66
2022/03/28 00:48:00;;;;;;;21.40;12.07;;;7.90;69.40;;;;;;5029978;28;20064;-65
2022/03/28 00:50:29;;;;;;;23.98;11.93;;;7.90;69.40;;;;;;5031459;28;20029;-66
2022/03/28 00:52:56;;;;;;;27.75;12.25;;;7.80;70.00;;;;;;5022934;28;20151;-65
2022/03/28 00:55:21;;;;;;;26.48;11.93;;;7.60;70.50;;;;;;5025229;28;20076;-65
2022/03/28 00:57:47;;;;;;;20.70;11.52;;;7.50;70.80;;;;;;5023659;28;20349;-65
2022/03/28 01:00:14;;;;;;;25.88;12.25;;;7.30;71.60;;;;;;5020978;28;20022;-66
2022/03/28 01:02:43;;;;;;;21.95;12.00;;;7.10;72.20;;;;;;5034011;28;20026;-65
2022/03/28 01:05:11;;;;;;;24.33;11.65;;;6.90;73.10;;;;;;5020984;28;20025;-65
2022/03/28 01:07:39;;;;;;;31.75;13.05;;;6.70;73.60;;;;;;5033818;28;20036;-65
2022/03/28 01:10:05;;;;;;;25.58;11.45;;;6.50;73.90;;;;;;5019965;28;20065;-65
2022/03/28 01:12:42;;;;;;;24.00;12.43;;;6.50;74.30;;;;;;5032618;28;20022;-65
2022/03/28 01:15:10;;;;;;;22.55;11.20;;;6.40;74.20;;;;;;5031546;28;20106;-65
2022/03/28 01:20:24;;;;;;;20.48;11.90;;;6.20;75.60;;;;;;5027888;28;20080;-65
2022/03/28 01:22:49;;;;;;;21.85;11.98;;;6.10;75.80;;;;;;5031614;28;20025;-65
2022/03/28 01:25:24;;;;;;;21.02;12.05;;;6.10;75.90;;;;;;5034399;28;20406;-65
2022/03/28 01:27:52;;;;;;;30.40;11.85;;;6.20;75.50;;;;;;5020479;28;20326;-66
2022/03/28 01:30:20;;;;;;;28.38;13.18;;;6.20;76.00;;;;;;5030991;28;20099;-65
2022/03/28 01:32:51;;;;;;;25.30;12.27;;;6.10;75.40;;;;;;5029048;28;20478;-65
2022/03/28 01:35:31;;;;;;;23.00;11.95;;;6.10;75.70;;;;;;5029618;28;20056;-65
2022/03/28 01:37:58;;;;;;;23.23;11.32;;;6.00;76.00;;;;;;5022334;28;20018;-65
2022/03/28 01:40:24;;;;;;;24.95;12.55;;;5.90;76.70;;;;;;5025263;28;20029;-65
2022/03/28 01:42:51;;;;;;;27.02;11.63;;;5.80;77.30;;;;;;5024621;28;20377;-66
2022/03/28 01:45:18;;;;;;;24.23;11.80;;;5.60;77.80;;;;;;5021934;28;20032;-65
2022/03/28 01:47:47;;;;;;;24.67;12.75;;;5.50;78.40;;;;;;5028020;28;20021;-66
2022/03/28 01:50:13;;;;;;;22.58;12.30;;;5.40;78.70;;;;;;5027571;28;20391;-66
2022/03/28 01:52:39;;;;;;;22.48;11.60;;;5.40;78.60;;;;;;5023919;28;20030;-66
2022/03/28 01:55:06;;;;;;;24.45;11.20;;;5.40;78.80;;;;;;5027730;28;20036;-66
2022/03/28 01:57:32;;;;;;;23.30;12.38;;;5.40;78.90;;;;;;5029210;28;20045;-66
2022/03/28 01:59:58;;;;;;;22.98;11.52;;;5.30;79.00;;;;;;5020964;28;21810;-66
2022/03/28 02:02:23;;;;;;;26.02;12.77;;;5.20;79.20;;;;;;5029343;28;20029;-66
2022/03/28 02:04:49;;;;;;;25.08;11.90;;;5.20;79.30;;;;;;5023058;28;20033;-66
2022/03/28 02:07:16;;;;;;;26.10;12.80;;;5.10;80.10;;;;;;5028335;28;20029;-66
2022/03/28 02:09:41;;;;;;;27.65;12.82;;;5.10;79.50;;;;;;5023996;28;20125;-65
2022/03/28 02:12:08;;;;;;;29.45;13.50;;;5.20;79.10;;;;;;5032318;28;20536;-66
2022/03/28 02:14:33;;;;;;;23.58;11.55;;;5.30;79.20;;;;;;5020339;28;20021;-65
2022/03/28 02:16:59;;;;;;;27.13;12.48;;;5.30;79.10;;;;;;5023257;28;20414;-66
2022/03/28 02:19:24;;;;;;;23.73;11.98;;;5.40;78.90;;;;;;5019956;28;20105;-66
2022/03/28 02:21:53;;;;;;;21.27;10.93;;;5.30;78.60;;;;;;5027743;28;20026;-66
2022/03/28 02:24:19;;;;;;;22.90;11.50;;;5.20;79.30;;;;;;5025287;28;20030;-65
2022/03/28 02:26:44;;;;;;;24.60;12.32;;;5.10;79.50;;;;;;5044013;28;20057;-66
2022/03/28 02:29:10;;;;;;;28.88;13.30;;;5.10;79.60;;;;;;5024355;28;20037;-66
2022/03/28 02:31:36;;;;;;;26.13;11.95;;;5.00;79.80;;;;;;5030088;28;20025;-66
2022/03/28 02:34:01;;;;;;;27.02;12.93;;;4.90;80.00;;;;;;5022027;28;20029;-66
2022/03/28 02:36:27;;;;;;;26.48;12.70;;;5.00;80.30;;;;;;5021969;28;20029;-66
2022/03/28 02:38:52;;;;;;;24.15;12.38;;;4.90;80.20;;;;;;5027019;28;20105;-66
2022/03/28 02:41:18;;;;;;;25.88;12.27;;;4.90;80.40;;;;;;5030830;28;20069;-66
2022/03/28 02:43:44;;;;;;;25.30;13.35;;;5.00;80.30;;;;;;5026128;28;20033;-66
2022/03/28 02:46:09;;;;;;;25.52;11.20;;;5.20;79.40;;;;;;5018995;28;20137;-66
2022/03/28 02:48:35;;;;;;;24.48;12.63;;;5.30;78.30;;;;;;5033092;28;20032;-66
2022/03/28 02:51:01;;;;;;;26.35;11.73;;;5.30;78.60;;;;;;5026512;28;20022;-66
2022/03/28 02:53:26;;;;;;;27.08;12.20;;;5.10;78.80;;;;;;5018372;28;20022;-66
2022/03/28 02:55:52;;;;;;;22.27;12.18;;;4.90;80.20;;;;;;5020815;28;20061;-66
2022/03/28 02:58:17;;;;;;;23.10;11.98;;;4.70;81.40;;;;;;5023451;28;20029;-66
2022/03/28 03:00:43;;;;;;;39.05;19.40;;;4.50;82.50;;;;;;5024116;28;20029;-65
2022/03/28 03:03:09;;;;;;;29.00;16.70;;;4.30;82.90;;;;;;5025705;28;20029;-65
2022/03/28 03:05:35;;;;;;;26.13;13.75;;;4.20;83.50;;;;;;5019822;28;20438;-65
2022/03/28 03:08:00;;;;;;;27.98;15.68;;;4.20;83.60;;;;;;5019125;28;20422;-65
2022/03/28 03:10:26;;;;;;;26.33;13.50;;;4.20;83.50;;;;;;5025471;28;20069;-65
2022/03/28 03:12:51;;;;;;;24.45;12.55;;;4.20;83.30;;;;;;5024229;28;20083;-67
2022/03/28 03:15:17;;;;;;;28.20;13.32;;;4.20;83.20;;;;;;5030125;28;20034;-67
2022/03/28 03:17:43;;;;;;;24.13;12.52;;;4.30;82.60;;;;;;5028103;28;20013;-66
2022/03/28 03:20:09;;;;;;;42.90;21.15;;;4.30;82.10;;;;;;5025486;28;20041;-66
2022/03/28 03:22:35;;;;;;;73.07;34.08;;;4.50;81.20;;;;;;5025073;28;20025;-66
2022/03/28 03:25:01;;;;;;;42.83;23.38;;;4.60;80.80;;;;;;5027814;28;20117;-66
2022/03/28 03:27:27;;;;;;;24.35;12.27;;;4.70;80.80;;;;;;5016328;28;20109;-66
2022/03/28 03:29:52;;;;;;;24.98;12.23;;;4.80;80.30;;;;;;5019492;28;20080;-66
2022/03/28 03:32:18;;;;;;;24.23;11.65;;;5.00;79.50;;;;;;5028625;28;20448;-66
2022/03/28 03:34:44;;;;;;;25.80;12.20;;;5.30;78.60;;;;;;5033681;28;20029;-66
2022/03/28 03:37:15;;;;;;;26.23;11.52;;;5.40;78.10;;;;;;5028289;28;20489;-66
2022/03/28 03:39:41;;;;;;;23.10;12.25;;;5.60;77.10;;;;;;5034225;28;20028;-65
2022/03/28 03:42:07;;;;;;;26.15;13.02;;;5.70;76.40;;;;;;5024694;28;20037;-66
2022/03/28 03:44:33;;;;;;;25.88;13.20;;;5.80;75.90;;;;;;5028028;28;20022;-66
2022/03/28 03:46:58;;;;;;;30.73;14.07;;;6.00;75.50;;;;;;5029008;28;20052;-66
2022/03/28 03:49:24;;;;;;;30.90;12.90;;;6.10;75.10;;;;;;5028325;28;20423;-66
2022/03/28 03:51:49;;;;;;;40.00;13.52;;;6.10;74.70;;;;;;5029969;28;20029;-66
2022/03/28 03:54:15;;;;;;;27.90;12.02;;;6.10;75.30;;;;;;5029390;28;20387;-66
2022/03/28 03:56:41;;;;;;;30.88;12.27;;;5.90;75.70;;;;;;5026882;28;20030;-66
2022/03/28 03:59:07;;;;;;;27.10;13.70;;;5.70;76.40;;;;;;5022881;28;20013;-66
2022/03/28 04:01:33;;;;;;;28.80;13.93;;;5.40;77.10;;;;;;5022634;28;20093;-66
2022/03/28 04:03:58;;;;;;;27.98;12.80;;;5.10;78.40;;;;;;5034158;28;20101;-66
2022/03/28 04:06:24;;;;;;;23.35;11.57;;;5.00;79.20;;;;;;5033868;28;20465;-66
2022/03/28 04:08:50;;;;;;;27.23;13.75;;;4.80;79.50;;;;;;5035458;28;20035;-66
2022/03/28 04:11:15;;;;;;;29.15;12.82;;;4.80;79.90;;;;;;5023677;28;20026;-66
2022/03/28 04:13:41;;;;;;;33.05;13.75;;;4.80;79.60;;;;;;5022064;28;20057;-66
2022/03/28 04:16:07;;;;;;;27.27;13.32;;;4.90;79.60;;;;;;5026825;28;20030;-65
2022/03/28 04:18:32;;;;;;;30.73;13.88;;;4.80;79.90;;;;;;5029748;28;20025;-65
2022/03/28 04:20:58;;;;;;;32.30;13.90;;;4.80;79.90;;;;;;5024136;28;20369;-66
2022/03/28 04:23:25;;;;;;;29.58;12.55;;;4.90;79.20;;;;;;5029122;28;20079;-66
2022/03/28 04:25:51;;;;;;;27.08;13.32;;;5.30;77.60;;;;;;5032587;28;20113;-65
2022/03/28 04:28:17;;;;;;;26.42;13.15;;;5.60;76.70;;;;;;5028082;28;20061;-64
2022/03/28 04:30:43;;;;;;;28.77;13.32;;;5.90;75.40;;;;;;5026429;28;20026;-65
2022/03/28 04:33:09;;;;;;;26.73;13.38;;;6.20;74.30;;;;;;5028660;28;20029;-65
2022/03/28 04:35:36;;;;;;;24.40;13.10;;;6.10;74.50;;;;;;5026924;28;20046;-65
2022/03/28 04:38:04;;;;;;;25.15;13.02;;;6.30;73.60;;;;;;5032875;28;20021;-65
2022/03/28 04:40:30;;;;;;;32.80;17.38;;;6.40;72.90;;;;;;4936302;28;20045;-66
2022/03/28 04:42:55;;;;;;;26.38;13.35;;;6.20;74.40;;;;;;5020495;28;20029;-65
2022/03/28 04:45:21;;;;;;;29.48;12.98;;;5.90;75.00;;;;;;5025814;28;20314;-65
2022/03/28 04:47:47;;;;;;;25.92;13.88;;;5.80;74.80;;;;;;5028929;28;20021;-65
2022/03/28 04:50:12;;;;;;;27.42;13.82;;;6.00;74.40;;;;;;5031690;28;20048;-65
2022/03/28 04:52:38;;;;;;;25.98;14.13;;;6.20;73.50;;;;;;5027642;28;20033;-65
2022/03/28 04:55:05;;;;;;;25.73;13.10;;;6.60;72.30;;;;;;5026055;28;20026;-65
2022/03/28 04:57:31;;;;;;;28.35;13.95;;;6.90;71.50;;;;;;5024262;28;20017;-65
2022/03/28 04:59:57;;;;;;;28.20;12.98;;;7.10;70.80;;;;;;5016234;28;20034;-65
2022/03/28 05:02:23;;;;;;;25.40;13.15;;;7.30;69.90;;;;;;5018253;28;20101;-66
2022/03/28 05:04:48;;;;;;;31.17;14.27;;;7.30;69.70;;;;;;5025307;28;20105;-66
2022/03/28 05:07:23;;;;;;;24.13;13.23;;;7.40;69.50;;;;;;5019335;28;20034;-66
2022/03/28 05:09:48;;;;;;;26.42;12.95;;;7.50;69.10;;;;;;5028304;28;20607;-66
2022/03/28 05:12:14;;;;;;;26.67;13.43;;;7.40;69.50;;;;;;5033937;28;20304;-65
2022/03/28 05:14:39;;;;;;;28.38;12.82;;;7.20;70.00;;;;;;5024178;28;20018;-66
2022/03/28 05:17:06;;;;;;;26.48;13.82;;;7.00;70.70;;;;;;5023243;28;20078;-66
2022/03/28 05:19:31;;;;;;;35.05;14.25;;;6.90;70.90;;;;;;5024074;28;20021;-65
2022/03/28 05:21:58;;;;;;;27.58;14.40;;;6.70;72.40;;;;;;5048158;28;20311;-65
2022/03/28 05:24:23;;;;;;;27.33;14.32;;;6.30;73.70;;;;;;5027937;28;20030;-65
2022/03/28 05:26:49;;;;;;;42.05;15.68;;;6.10;74.40;;;;;;5040494;28;20032;-65
2022/03/28 05:29:15;;;;;;;27.63;15.95;;;5.80;75.40;;;;;;5033472;28;20021;-65
2022/03/28 05:31:44;;;;;;;35.78;14.52;;;5.60;76.60;;;;;;5050355;28;20028;-66
2022/03/28 05:34:10;;;;;;;31.48;15.07;;;5.50;76.70;;;;;;5049696;28;20029;-65
2022/03/28 05:36:39;;;;;;;25.65;14.23;;;5.60;76.30;;;;;;5026186;28;20433;-65
2022/03/28 05:39:04;;;;;;;29.42;13.50;;;5.60;76.70;;;;;;5033970;28;20057;-66
2022/03/28 05:41:30;;;;;;;27.45;14.35;;;5.60;77.00;;;;;;5031930;28;20052;-66
2022/03/28 05:43:57;;;;;;;26.45;13.75;;;5.60;77.30;;;;;;5040751;28;20084;-65
2022/03/28 05:46:30;;;;;;;26.67;14.32;;;5.40;78.50;;;;;;5035990;28;20318;-65
2022/03/28 05:48:56;;;;;;;24.75;13.27;;;5.20;79.00;;;;;;5019834;28;20532;-65
2022/03/28 05:51:22;;;;;;;28.73;13.82;;;5.30;78.90;;;;;;5016590;28;20029;-66
2022/03/28 05:53:51;;;;;;;29.48;14.00;;;5.30;78.90;;;;;;5016519;28;20399;-66
2022/03/28 05:56:17;;;;;;;30.88;15.25;;;5.30;79.70;;;;;;5019157;28;20340;-65
2022/03/28 05:58:45;;;;;;;27.75;14.15;;;5.30;79.40;;;;;;5016917;28;20026;-65
2022/03/28 06:01:11;;;;;;;24.80;14.05;;;5.50;78.40;;;;;;5029532;28;20027;-65
2022/03/28 06:03:37;;;;;;;26.90;13.98;;;5.70;78.00;;;;;;5036149;28;20475;-64
2022/03/28 06:06:04;;;;;;;27.95;15.23;;;5.90;77.40;;;;;;5036094;28;20454;-67
2022/03/28 06:08:30;;;;;;;26.63;14.07;;;6.40;76.00;;;;;;5034489;28;20096;-66
2022/03/28 06:11:05;;;;;;;25.90;14.15;;;6.80;74.60;;;;;;5021892;28;20329;-66
2022/03/28 06:13:31;;;;;;;30.65;14.52;;;7.20;73.10;;;;;;5034738;28;20056;-66
2022/03/28 06:15:58;;;;;;;31.92;17.98;;;7.30;74.00;;;;;;5021768;28;20041;-66
2022/03/28 06:18:24;;;;;;;32.03;17.58;;;7.20;74.60;;;;;;5020185;28;20032;-66
2022/03/28 06:20:49;;;;;;;32.55;17.48;;;7.00;75.30;;;;;;5035361;28;20330;-66
2022/03/28 06:23:20;;;;;;;31.80;17.25;;;6.80;75.70;;;;;;5034227;28;20044;-66
2022/03/28 06:25:46;;;;;;;30.20;16.27;;;6.90;76.20;;;;;;5035783;28;20033;-65
2022/03/28 06:28:12;;;;;;;28.23;15.93;;;6.90;77.00;;;;;;5028412;28;20330;-66
2022/03/28 06:30:41;;;;;;;30.67;14.73;;;6.90;77.10;;;;;;5016864;28;20034;-66
2022/03/28 06:33:06;;;;;;;27.30;14.38;;;7.00;77.30;;;;;;5027165;28;20304;-65
2022/03/28 06:35:32;;;;;;;28.60;14.27;;;7.30;76.20;;;;;;5016079;28;20045;-65
2022/03/28 06:37:58;;;;;;;25.95;12.88;;;7.60;74.40;;;;;;5019720;28;20057;-66
2022/03/28 06:40:24;;;;;;;27.95;15.35;;;8.20;72.10;;;;;;5016342;28;20034;-66
2022/03/28 06:42:50;;;;;;;30.25;16.33;;;8.40;73.50;;;;;;5023366;28;20025;-65
2022/03/28 06:45:18;;;;;;;27.50;14.85;;;8.40;73.00;;;;;;5035420;28;20026;-65
2022/03/28 06:47:51;;;;;;;28.50;14.50;;;8.50;72.30;;;;;;5027761;28;20397;-66
2022/03/28 06:50:17;;;;;;;27.90;15.20;;;8.50;72.30;;;;;;5030089;28;20037;-66
2022/03/28 06:52:43;;;;;;;27.15;13.90;;;8.60;72.50;;;;;;5028355;28;20033;-66
2022/03/28 06:55:09;;;;;;;27.17;14.13;;;8.90;71.00;;;;;;5015895;28;20105;-66
2022/03/28 06:57:35;;;;;;;29.90;15.25;;;9.10;70.80;;;;;;5031209;28;20692;-65
2022/03/28 07:00:02;;;;;;;26.73;15.18;;;9.20;70.50;;;;;;5034394;28;20025;-66
2022/03/28 07:02:27;;;;;;;26.33;14.18;;;9.40;70.50;;;;;;5034051;28;20041;-66
2022/03/28 07:04:53;;;;;;;28.20;14.20;;;9.50;70.70;;;;;;5033933;28;20025;-66
2022/03/28 07:07:19;;;;;;;28.20;14.40;;;9.70;71.10;;;;;;5021881;28;20382;-66
2022/03/28 07:09:44;;;;;;;28.00;12.88;;;9.80;70.50;;;;;;5032846;28;20072;-66
2022/03/28 07:12:10;;;;;;;23.38;13.02;;;9.90;71.50;;;;;;5022072;28;20041;-65
2022/03/28 07:14:36;;;;;;;25.02;13.65;;;10.10;70.60;;;;;;5021646;28;20025;-65
2022/03/28 07:17:02;;;;;;;26.52;15.50;;;10.30;68.10;;;;;;5032503;28;20034;-65
2022/03/28 07:19:28;;;;;;;28.17;15.77;;;10.60;68.90;;;;;;5035058;28;20025;-66
2022/03/28 07:21:54;;;;;;;34.20;15.63;;;10.70;67.50;;;;;;5026477;28;20030;-65
2022/03/28 07:24:21;;;;;;;29.83;16.75;;;10.90;67.20;;;;;;5033174;28;20036;-66
2022/03/28 07:26:48;;;;;;;28.38;15.65;;;10.90;67.50;;;;;;5019053;28;20026;-66
2022/03/28 07:29:17;;;;;;;28.33;17.20;;;11.10;67.00;;;;;;5030541;28;20025;-65
2022/03/28 07:31:46;;;;;;;30.58;17.83;;;11.40;67.30;;;;;;5029400;28;20022;-66
2022/03/28 07:34:30;;;;;;;36.95;17.60;;;11.50;66.80;;;;;;5019115;28;20028;-66
2022/03/28 07:36:56;;;;;;;39.95;22.45;;;11.70;66.20;;;;;;5028086;28;20078;-66
2022/03/28 07:39:22;;;;;;;41.40;22.35;;;11.90;66.10;;;;;;5038708;28;20108;-66
2022/03/28 07:41:50;;;;;;;36.03;19.13;;;12.00;65.80;;;;;;5036004;28;20055;-65
2022/03/28 07:44:16;;;;;;;31.90;18.25;;;12.20;65.70;;;;;;5037228;28;20044;-65
2022/03/28 07:46:44;;;;;;;36.17;19.30;;;12.30;65.30;;;;;;5032122;28;20022;-66
2022/03/28 07:49:11;;;;;;;32.20;18.70;;;12.50;65.90;;;;;;5025414;28;20026;-66
2022/03/28 07:51:37;;;;;;;28.00;16.48;;;12.60;64.30;;;;;;5021217;28;20022;-66
2022/03/28 07:54:02;;;;;;;35.20;17.48;;;12.80;64.00;;;;;;5018671;28;20029;-66
2022/03/28 07:56:28;;;;;;;31.13;15.20;;;12.80;63.10;;;;;;5027474;28;20034;-65
2022/03/28 07:58:54;;;;;;;29.92;15.48;;;12.80;63.00;;;;;;5036689;28;20108;-65
2022/03/28 08:01:19;;;;;;;27.80;15.93;;;12.80;63.10;;;;;;5023689;28;20097;-66
2022/03/28 08:03:45;;;;;;;30.90;16.02;;;12.90;63.40;;;;;;5038100;28;20038;-66
2022/03/28 08:06:11;;;;;;;30.58;15.95;;;13.10;63.30;;;;;;5037751;28;20148;-65
2022/03/28 08:08:37;;;;;;;27.92;16.38;;;13.40;63.20;;;;;;5038217;28;20034;-65
2022/03/28 08:11:05;;;;;;;29.05;17.60;;;13.60;62.40;;;;;;5023037;28;20045;-65
2022/03/28 08:13:31;;;;;;;31.70;16.73;;;13.90;62.00;;;;;;5036691;28;20030;-66
2022/03/28 08:15:57;;;;;;;33.42;16.90;;;14.10;62.10;;;;;;5022379;28;20022;-66
2022/03/28 08:18:23;;;;;;;27.67;15.32;;;14.30;62.00;;;;;;5018229;28;20025;-66
2022/03/28 08:20:48;;;;;;;33.83;17.48;;;15.00;61.50;;;;;;5023564;28;20030;-66
2022/03/28 08:23:16;;;;;;;28.50;15.90;;;16.30;59.30;;;;;;5018041;28;20112;-66
2022/03/28 08:25:42;;;;;;;28.35;16.70;;;17.60;57.60;;;;;;5030226;28;20108;-66
2022/03/28 08:28:08;;;;;;;28.73;16.27;;;19.00;54.40;;;;;;5036713;28;20079;-66
2022/03/28 08:30:37;;;;;;;26.35;16.20;;;19.50;52.50;;;;;;5031040;28;20334;-66
2022/03/28 08:33:02;;;;;;;25.80;15.90;;;20.10;51.60;;;;;;5037870;28;20024;-66
2022/03/28 08:35:28;;;;;;;24.52;14.45;;;20.40;49.30;;;;;;5028088;28;20030;-66
2022/03/28 08:37:54;;;;;;;26.52;15.57;;;20.40;49.60;;;;;;5017821;28;20022;-66
2022/03/28 08:40:20;;;;;;;23.58;15.05;;;20.60;48.20;;;;;;5025312;28;20341;-66
2022/03/28 08:42:47;;;;;;;23.27;14.23;;;20.10;47.70;;;;;;5036417;28;20017;-66
2022/03/28 08:45:14;;;;;;;24.23;14.60;;;20.10;48.10;;;;;;5030313;28;20327;-66
2022/03/28 08:47:42;;;;;;;26.52;14.25;;;20.90;47.90;;;;;;5017735;28;20046;-66
2022/03/28 08:50:10;;;;;;;25.60;14.02;;;20.90;48.50;;;;;;5034815;28;20036;-66
2022/03/28 08:52:41;;;;;;;21.23;14.20;;;20.70;49.40;;;;;;5025974;28;20049;-65
2022/03/28 08:55:08;;;;;;;25.23;14.88;;;20.50;48.80;;;;;;5036549;28;20026;-65
2022/03/28 08:57:34;;;;;;;24.08;14.77;;;21.00;47.60;;;;;;5037384;28;20029;-65
2022/03/28 09:00:00;;;;;;;24.77;14.77;;;21.70;46.50;;;;;;5036089;28;20022;-66
2022/03/28 09:02:38;;;;;;;24.58;14.50;;;22.10;45.60;;;;;;5036570;28;20025;-67
2022/03/28 09:05:04;;;;;;;27.67;16.95;;;21.50;45.60;;;;;;5037202;28;20113;-67
2022/03/28 09:07:33;;;;;;;24.73;14.55;;;21.30;46.10;;;;;;5037169;28;20036;-66
2022/03/28 09:10:00;;;;;;;30.38;15.50;;;21.40;46.10;;;;;;5036936;28;20081;-66
2022/03/28 09:12:27;;;;;;;24.92;15.32;;;21.30;46.80;;;;;;5017544;28;20026;-66
2022/03/28 09:14:58;;;;;;;26.08;15.70;;;21.50;45.90;;;;;;5016014;28;20091;-67
2022/03/28 09:17:25;;;;;;;27.75;15.77;;;22.20;45.30;;;;;;5017040;28;20030;-66
2022/03/28 09:19:57;;;;;;;22.73;15.52;;;22.60;44.90;;;;;;5026295;28;20043;-66
2022/03/28 09:22:24;;;;;;;29.20;16.10;;;22.20;45.30;;;;;;5035750;28;20025;-66
2022/03/28 09:24:52;;;;;;;27.33;15.63;;;22.40;44.90;;;;;;5036574;28;20037;-66
2022/03/28 09:27:24;;;;;;;29.27;15.95;;;22.80;45.10;;;;;;5036751;28;20398;-66
2022/03/28 09:30:05;;;;;;;31.63;17.20;;;23.60;44.70;;;;;;5027028;28;20040;-66
2022/03/28 09:32:43;;;;;;;24.65;16.77;;;23.80;43.50;;;;;;5016018;28;20434;-66
2022/03/28 09:35:25;;;;;;;31.33;17.85;;;22.90;44.50;;;;;;5017013;28;20284;-65
2022/03/28 09:38:05;;;;;;;31.92;16.30;;;22.70;45.20;;;;;;5016842;28;20076;-65
2022/03/28 09:40:49;;;;;;;30.10;18.50;;;22.30;46.20;;;;;;5029969;28;20036;-65
2022/03/28 09:43:16;;;;;;;33.90;18.38;;;22.30;44.90;;;;;;5035345;28;20317;-66
2022/03/28 09:45:46;;;;;;;28.92;17.38;;;22.10;45.70;;;;;;5036067;28;20025;-66
2022/03/28 09:48:14;;;;;;;32.03;18.58;;;21.90;46.90;;;;;;5036247;28;20322;-66
2022/03/28 09:50:49;;;;;;;29.35;18.55;;;21.70;44.90;;;;;;5021487;28;20033;-65
2022/03/28 09:53:25;;;;;;;29.17;17.73;;;22.10;45.60;;;;;;5016606;28;20314;-66
2022/03/28 09:55:53;;;;;;;25.83;17.33;;;22.70;44.90;;;;;;5016402;28;20072;-65
2022/03/28 09:58:31;;;;;;;28.05;17.17;;;22.70;44.70;;;;;;5015364;28;20025;-66
2022/03/28 10:00:57;;;;;;;28.13;16.20;;;22.00;42.80;;;;;;5032782;28;20037;-66
2022/03/28 10:03:23;;;;;;;25.30;15.40;;;22.10;43.00;;;;;;5035763;28;20033;-65
2022/03/28 10:05:50;;;;;;;23.13;15.15;;;22.40;41.40;;;;;;5036284;28;20036;-66
2022/03/28 10:08:15;;;;;;;26.38;15.27;;;22.40;42.60;;;;;;5036030;28;20036;-65
2022/03/28 10:10:41;;;;;;;22.42;14.70;;;22.50;41.00;;;;;;5022179;28;20042;-65
2022/03/28 10:13:08;;;;;;;22.05;14.63;;;22.90;40.70;;;;;;5015150;28;20160;-65
2022/03/28 10:15:34;;;;;;;20.58;12.38;;;23.20;38.80;;;;;;5016578;28;20314;-65
2022/03/28 10:18:01;;;;;;;22.33;13.68;;;23.60;36.90;;;;;;5016243;28;20022;-65
2022/03/28 10:20:26;;;;;;;19.20;13.05;;;23.60;37.90;;;;;;5027135;28;20116;-65
2022/03/28 10:22:55;;;;;;;25.13;14.18;;;22.90;37.90;;;;;;5035229;28;20371;-65
2022/03/28 10:25:23;;;;;;;20.90;13.55;;;22.10;38.60;;;;;;5035991;28;20022;-65
2022/03/28 10:27:51;;;;;;;21.48;14.50;;;22.10;38.50;;;;;;5029448;28;20026;-65
2022/03/28 10:30:27;;;;;;;22.02;14.07;;;22.20;38.90;;;;;;5035479;28;20104;-65
2022/03/28 10:33:10;;;;;;;21.17;13.55;;;22.80;39.50;;;;;;5035826;28;20497;-65
2022/03/28 10:35:36;;;;;;;21.40;13.60;;;23.60;37.90;;;;;;5035810;28;20018;-66
2022/03/28 10:38:19;;;;;;;22.45;14.07;;;24.10;37.60;;;;;;5026462;28;20583;-65
2022/03/28 10:41:18;;;;;;;20.05;13.65;;;23.50;37.60;;;;;;5017000;28;20038;-65
2022/03/28 10:43:45;;;;;;;21.08;13.63;;;23.50;38.30;;;;;;5026467;28;20037;-65
2022/03/28 10:46:12;;;;;;;24.73;14.38;;;23.60;38.60;;;;;;5025257;28;20045;-65
2022/03/28 10:49:00;;;;;;;22.27;14.30;;;23.80;38.80;;;;;;5024662;28;20318;-65
2022/03/28 10:51:31;;;;;;;28.73;14.55;;;23.40;39.00;;;;;;5039721;28;20032;-65
2022/03/28 10:54:03;;;;;;;29.17;15.00;;;23.00;39.00;;;;;;5032627;28;20045;-65
2022/03/28 10:56:36;;;;;;;22.63;13.88;;;23.00;38.90;;;;;;5027025;28;20133;-66
2022/03/28 10:59:15;;;;;;;18.58;12.93;;;23.30;36.80;;;;;;5032771;28;20025;-65
2022/03/28 11:01:43;;;;;;;16.95;11.50;;;23.10;35.40;;;;;;5028772;28;20029;-65
2022/03/28 11:04:25;;;;;;;23.50;13.18;;;23.20;35.80;;;;;;5025406;28;20049;-65
2022/03/28 11:07:05;;;;;;;18.23;12.48;;;22.60;37.40;;;;;;5036745;28;20022;-65
2022/03/28 11:09:54;;;;;;;22.60;12.57;;;22.60;36.90;;;;;;5028268;28;20085;-65
2022/03/28 11:12:34;;;;;;;22.38;12.65;;;23.40;35.70;;;;;;5023030;28;20032;-66
2022/03/28 11:15:16;;;;;;;24.35;15.02;;;23.40;35.60;;;;;;5028642;28;20026;-66
2022/03/28 11:18:02;;;;;;;21.88;13.20;;;23.30;36.40;;;;;;5038522;28;20433;-65
2022/03/28 11:20:46;;;;;;;24.02;14.23;;;23.40;36.20;;;;;;5022334;28;20034;-65
2022/03/28 11:23:15;;;;;;;22.13;14.57;;;24.10;35.90;;;;;;5019434;28;20049;-66
2022/03/28 11:25:58;;;;;;;19.90;12.90;;;24.40;36.50;;;;;;5021740;28;20168;-65
2022/03/28 11:28:25;;;;;;;24.33;12.77;;;24.30;35.30;;;;;;5028663;28;20338;-66
2022/03/28 11:31:03;;;;;;;20.25;12.90;;;23.10;36.10;;;;;;5019040;28;20030;-65
2022/03/28 11:33:41;;;;;;;19.35;12.32;;;22.70;35.50;;;;;;5019186;28;20030;-66
2022/03/28 11:36:22;;;;;;;21.98;13.52;;;22.40;37.00;;;;;;5031437;28;20060;-66
2022/03/28 11:38:55;;;;;;;21.88;13.43;;;22.50;36.00;;;;;;5037072;28;20024;-66
2022/03/28 11:41:25;;;;;;;19.15;12.68;;;22.50;36.50;;;;;;5037234;28;20128;-66
2022/03/28 11:43:54;;;;;;;18.73;11.77;;;22.80;35.80;;;;;;5030278;28;20030;-65
2022/03/28 11:46:32;;;;;;;20.05;12.52;;;22.80;36.50;;;;;;5024958;28;20032;-66
2022/03/28 11:49:11;;;;;;;20.35;12.55;;;23.00;36.40;;;;;;5018764;28;20065;-65
2022/03/28 11:51:44;;;;;;;19.55;12.50;;;23.60;35.00;;;;;;5018885;28;20030;-66
2022/03/28 11:54:15;;;;;;;17.55;11.93;;;23.90;36.20;;;;;;5038396;28;20371;-65
2022/03/28 11:59:30;;;;;;;20.48;12.48;;;23.10;37.30;;;;;;5018733;28;20080;-67
2022/03/28 12:01:57;;;;;;;16.60;11.77;;;23.20;35.60;;;;;;5018508;28;20022;-67
2022/03/28 12:04:24;;;;;;;18.13;12.02;;;22.90;36.20;;;;;;5031905;28;20056;-66
2022/03/28 12:06:56;;;;;;;19.17;12.55;;;23.00;36.00;;;;;;5031834;28;20109;-66
2022/03/28 12:09:22;;;;;;;18.42;12.45;;;23.60;36.90;;;;;;5036717;28;20291;-66
2022/03/28 12:11:53;;;;;;;16.90;11.43;;;23.90;35.40;;;;;;5018718;28;20110;-66
2022/03/28 12:14:19;;;;;;;19.08;11.95;;;23.30;35.10;;;;;;5025364;28;20037;-66
2022/03/28 12:16:48;;;;;;;18.55;11.63;;;22.60;34.90;;;;;;5039268;28;20025;-67
2022/03/28 12:19:25;;;;;;;19.50;11.25;;;22.20;34.80;;;;;;5025738;28;20076;-66
2022/03/28 12:21:52;;;;;;;19.30;11.82;;;22.10;35.50;;;;;;5027168;28;20075;-66
2022/03/28 12:24:20;;;;;;;16.33;11.15;;;22.00;35.70;;;;;;5027865;28;20048;-66
2022/03/28 12:26:48;;;;;;;17.63;11.60;;;22.40;36.30;;;;;;5029616;28;20018;-66
2022/03/28 12:29:15;;;;;;;19.20;11.45;;;22.60;34.90;;;;;;5026406;28;20375;-66
2022/03/28 12:31:46;;;;;;;20.48;12.13;;;22.70;35.80;;;;;;5031637;28;20040;-64
2022/03/28 12:34:13;;;;;;;16.55;10.88;;;22.10;35.40;;;;;;5030907;28;20079;-66
2022/03/28 12:36:39;;;;;;;16.88;11.15;;;22.40;36.80;;;;;;5030623;28;20117;-65
2022/03/28 12:39:10;;;;;;;21.70;14.27;;;22.80;36.20;;;;;;5037677;28;20032;-66
2022/03/28 12:41:47;;;;;;;18.20;12.50;;;22.90;35.60;;;;;;5035993;28;20322;-65
2022/03/28 12:44:20;;;;;;;22.02;11.85;;;22.50;36.90;;;;;;5027924;28;20033;-66